Terminal Aerodrome Forecast
Issued by NWS Missoula, MT

Home | Current Version | Previous Version | Text Only | Print | Product List | Glossary On
Versions: 1 2 3 4 5 6 7 8 9 10 11 12 13 14 15 16 17 18
000
FTUS45 KMSO 310348 AAA
TAFGPI
TAF AMD
KGPI 310348Z 3104/3124 VRB03KT P6SM SCT100
     FM310600 VRB03KT 4SM BR SCT150
     FM310900 00000KT 2SM BR SCT002
     FM311600 VRB03KT 5SM BR FEW004 SCT170
     FM311800 19004KT P6SM SCT120=

USA.gov is the U.S. government's official web portal to all federal, state and local government web resources and services.